createdAt,value
2018-10-03T00:01:05.928Z,80.33
2018-10-03T00:02:16.067Z,79.96
2018-10-03T00:03:26.191Z,80.05
2018-10-03T00:04:36.375Z,79.77
2018-10-03T00:05:46.535Z,79.77
2018-10-03T00:06:56.679Z,79.57
2018-10-03T00:08:06.818Z,79.57
2018-10-03T00:09:17.069Z,79.28
2018-10-03T00:10:27.229Z,79.25
2018-10-03T00:11:37.352Z,79.25
2018-10-03T00:12:47.600Z,79.57
2018-10-03T00:13:57.776Z,79.63
2018-10-03T00:15:07.952Z,79.35
2018-10-03T00:16:17.852Z,79.25
2018-10-03T00:17:28.058Z,79.06
2018-10-03T00:18:38.224Z,79.25
2018-10-03T00:19:48.383Z,79.06
2018-10-03T00:20:58.495Z,79.72
2018-10-03T00:22:08.622Z,79.44
2018-10-03T00:23:19.058Z,79.53
2018-10-03T00:24:29.261Z,79.53
2018-10-03T00:25:40.356Z,79.91
2018-10-03T00:26:50.502Z,79.72
2018-10-03T00:28:00.629Z,79.82
2018-10-03T00:29:10.924Z,79.72
2018-10-03T00:30:21.108Z,80.11
2018-10-03T00:31:31.242Z,79.91
2018-10-03T00:32:40.877Z,80.3
2018-10-03T00:33:51.019Z,80.49
2018-10-03T00:35:01.409Z,80.49
2018-10-03T00:36:11.597Z,80.2
2018-10-03T00:37:21.461Z,80.49
2018-10-03T00:38:30.994Z,80.39
2018-10-03T00:39:41.055Z,80.3
2018-10-03T00:40:51.184Z,80.11
2018-10-03T00:42:01.316Z,80.3
2018-10-03T00:43:11.467Z,80.39
2018-10-03T00:44:21.018Z,80.58
2018-10-03T00:45:31.137Z,80.39
2018-10-03T00:46:41.267Z,80.39
2018-10-03T00:47:51.143Z,80.2
2018-10-03T00:49:01.284Z,80.11
2018-10-03T00:50:11.162Z,80.11
2018-10-03T00:51:21.282Z,80.35
2018-10-03T00:52:31.439Z,80.39
2018-10-03T00:53:41.583Z,80.01
2018-10-03T00:54:51.752Z,80.49
2018-10-03T00:56:01.904Z,80.01
2018-10-03T00:57:12.248Z,79.91
2018-10-03T00:58:22.401Z,79.78
2018-10-03T00:59:32.556Z,80.39
2018-10-03T01:00:42.916Z,80.3
2018-10-03T01:01:53.127Z,79.97
2018-10-03T01:03:03.321Z,79.97
2018-10-03T01:04:13.448Z,79.88
2018-10-03T01:05:23.345Z,80.2
2018-10-03T01:06:33.548Z,79.97
2018-10-03T01:07:43.724Z,80.01
2018-10-03T01:08:53.934Z,79.91
2018-10-03T01:10:04.133Z,79.35
2018-10-03T01:11:14.485Z,79.44
2018-10-03T01:12:24.610Z,80.16
2018-10-03T01:13:34.390Z,80.01
2018-10-03T01:14:44.798Z,79.44
2018-10-03T01:15:54.927Z,79.4
2018-10-03T01:17:05.102Z,79.63
2018-10-03T01:18:15.271Z,79.68
2018-10-03T01:19:25.460Z,79.63
2018-10-03T01:20:35.638Z,79.63
2018-10-03T01:21:45.760Z,79.49
2018-10-03T01:22:55.906Z,79.63
2018-10-03T01:24:06.064Z,79.49
2018-10-03T01:25:16.170Z,79.59
2018-10-03T01:26:26.316Z,79.4
2018-10-03T01:27:36.162Z,79.4
2018-10-03T01:28:46.334Z,79.4
2018-10-03T01:29:56.557Z,79.49
2018-10-03T01:31:06.897Z,79.68
2018-10-03T01:32:17.044Z,79.21
2018-10-03T01:33:27.181Z,79.4
2018-10-03T01:34:37.255Z,79.49
2018-10-03T01:35:47.404Z,80.07
2018-10-03T01:36:57.525Z,79.4
2018-10-03T01:38:07.428Z,80.07
2018-10-03T01:39:17.788Z,79.59
2018-10-03T01:40:27.984Z,79.97
2018-10-03T01:41:37.862Z,80.07
2018-10-03T01:42:48.012Z,79.88
2018-10-03T01:43:57.892Z,79.97
2018-10-03T01:45:08.006Z,80.07
2018-10-03T01:46:17.861Z,80.07
2018-10-03T01:47:27.985Z,79.88
2018-10-03T01:48:38.095Z,79.88
2018-10-03T01:49:47.880Z,79.78
2018-10-03T01:50:58.062Z,79.88
2018-10-03T01:52:08.281Z,80.26
2018-10-03T01:53:18.470Z,80.35
2018-10-03T01:54:28.339Z,80.16
2018-10-03T01:55:38.471Z,80.07
2018-10-03T01:56:48.639Z,80.35
2018-10-03T01:57:58.597Z,80.35
2018-10-03T01:59:08.528Z,80.16
2018-10-03T02:00:18.657Z,80.26
2018-10-03T02:01:28.819Z,80.35
2018-10-03T02:02:38.393Z,80.26
2018-10-03T02:03:48.512Z,80.16
2018-10-03T02:04:58.386Z,80.44
2018-10-03T02:06:08.507Z,80.44
2018-10-03T02:07:18.823Z,80.26
2018-10-03T02:08:29.010Z,80.31
2018-10-03T02:09:39.224Z,80.6
2018-10-03T02:10:49.105Z,80.5
2018-10-03T02:11:59.226Z,80.88
2018-10-03T02:13:09.377Z,80.79
2018-10-03T02:14:19.553Z,80.5
2018-10-03T02:15:29.782Z,80.41
2018-10-03T02:16:39.653Z,80.41
2018-10-03T02:17:49.816Z,80.6
2018-10-03T02:18:59.936Z,80.31
2018-10-03T02:20:10.110Z,80.26
2018-10-03T02:21:20.283Z,80.26
2018-10-03T02:22:30.514Z,80.41
2018-10-03T02:23:40.953Z,80.31
2018-10-03T02:24:52.053Z,80.54
2018-10-03T02:26:01.953Z,80.12
2018-10-03T02:27:12.073Z,79.78
2018-10-03T02:28:22.220Z,79.88
2018-10-03T02:29:32.076Z,79.88
2018-10-03T02:30:41.939Z,80.22
2018-10-03T02:31:52.096Z,79.55
2018-10-03T02:33:02.209Z,79.64
2018-10-03T02:34:12.382Z,79.74
2018-10-03T02:35:23.507Z,79.74
2018-10-03T02:36:33.949Z,79.74
2018-10-03T02:37:44.060Z,79.93
2018-10-03T02:38:54.185Z,79.74
2018-10-03T02:40:04.366Z,79.93
2018-10-03T02:41:14.528Z,80.12
2018-10-03T02:42:24.404Z,79.93
2018-10-03T02:43:34.673Z,79.46
2018-10-03T02:44:44.891Z,79.36
2018-10-03T02:45:55.075Z,79.55
2018-10-03T02:47:05.214Z,79.55
2018-10-03T02:48:15.461Z,79.64
2018-10-03T02:49:25.667Z,79.74
2018-10-03T02:50:35.808Z,79.64
2018-10-03T02:51:45.688Z,79.74
2018-10-03T02:52:55.885Z,79.64
2018-10-03T02:54:05.773Z,79.64
2018-10-03T02:55:15.886Z,79.55
2018-10-03T02:56:26.031Z,79.64
2018-10-03T02:57:36.726Z,79.55
2018-10-03T02:58:46.840Z,79.55
2018-10-03T02:59:56.973Z,79.64
2018-10-03T03:01:07.124Z,79.27
2018-10-03T03:02:17.447Z,79.3
2018-10-03T03:03:27.579Z,79.17
2018-10-03T03:04:37.739Z,79.02
2018-10-03T03:05:47.939Z,79.49
2018-10-03T03:06:58.165Z,79.21
2018-10-03T03:08:08.017Z,79.3
2018-10-03T03:09:18.168Z,79.4
2018-10-03T03:10:28.764Z,79.4
2018-10-03T03:11:38.614Z,79.4
2018-10-03T03:12:48.790Z,79.59
2018-10-03T03:13:59.159Z,79.4
2018-10-03T03:15:09.522Z,79.3
2018-10-03T03:16:19.797Z,79.4
2018-10-03T03:17:30.054Z,79.97
2018-10-03T03:18:40.263Z,80.02
2018-10-03T03:19:50.456Z,80.26
2018-10-03T03:21:00.600Z,79.74
2018-10-03T03:22:10.723Z,79.88
2018-10-03T03:23:20.873Z,79.97
2018-10-03T03:24:30.985Z,80.16
2018-10-03T03:25:41.103Z,80.64
2018-10-03T03:26:51.434Z,80.5
2018-10-03T03:28:01.686Z,80.79
2018-10-03T03:29:11.810Z,80.31
2018-10-03T03:30:21.973Z,80.69
2018-10-03T03:31:32.214Z,80.69
2018-10-03T03:32:42.420Z,80.79
2018-10-03T03:33:52.609Z,80.79
2018-10-03T03:35:02.713Z,80.79
2018-10-03T03:36:12.634Z,80.6
2018-10-03T03:37:22.964Z,80.41
2018-10-03T03:38:33.123Z,80.31
2018-10-03T03:39:43.354Z,80.31
2018-10-03T03:40:53.559Z,80.69
2018-10-03T03:42:03.769Z,80.6
2018-10-03T03:43:13.647Z,80.88
2018-10-03T03:44:23.845Z,80.79
2018-10-03T03:45:33.966Z,80.79
2018-10-03T03:46:44.134Z,80.31
2018-10-03T03:47:54.318Z,80.41
2018-10-03T03:49:04.579Z,80.79
2018-10-03T03:50:14.789Z,80.6
2018-10-03T03:51:24.948Z,80.69
2018-10-03T03:52:35.068Z,80.69
2018-10-03T03:53:45.194Z,80.6
2018-10-03T03:54:55.324Z,80.6
2018-10-03T03:56:05.439Z,80.5
2018-10-03T03:57:15.657Z,80.6
2018-10-03T03:58:25.824Z,80.5
2018-10-03T03:59:36.058Z,80.69
2018-10-03T04:00:46.896Z,80.69
2018-10-03T04:01:56.772Z,80.6
2018-10-03T04:03:06.638Z,80.22
2018-10-03T04:04:16.171Z,80.22
2018-10-03T04:05:26.287Z,80.22
2018-10-03T04:06:36.432Z,80.22
2018-10-03T04:07:46.781Z,80.22
2018-10-03T04:08:56.956Z,80.31
2018-10-03T04:10:07.194Z,80.22
2018-10-03T04:11:17.600Z,80.6
2018-10-03T04:12:27.738Z,80.22
2018-10-03T04:13:38.046Z,80.22
2018-10-03T04:14:47.921Z,80.41
2018-10-03T04:15:58.075Z,80.12
2018-10-03T04:17:08.029Z,80.41
2018-10-03T04:18:18.215Z,80.31
2018-10-03T04:19:28.005Z,80.22
2018-10-03T04:20:37.629Z,80.31
2018-10-03T04:21:48.837Z,80.22
2018-10-03T04:22:59.028Z,80.41
2018-10-03T04:24:08.915Z,80.22
2018-10-03T04:25:18.710Z,80.12
2018-10-03T04:26:28.829Z,80.22
2018-10-03T04:27:38.960Z,80.5
2018-10-03T04:28:48.836Z,80.5
2018-10-03T04:29:59.048Z,80.31
2018-10-03T04:31:09.228Z,80.79
2018-10-03T04:32:19.406Z,80.79
2018-10-03T04:33:29.656Z,80.79
2018-10-03T04:34:39.775Z,80.88
2018-10-03T04:35:49.871Z,80.79
2018-10-03T04:36:59.987Z,80.88
2018-10-03T04:38:10.101Z,80.88
2018-10-03T04:39:20.269Z,80.69
2018-10-03T04:40:30.465Z,80.79
2018-10-03T04:41:40.354Z,80.79
2018-10-03T04:42:50.496Z,80.22
2018-10-03T04:44:00.627Z,80.41
2018-10-03T04:45:10.967Z,80.22
2018-10-03T04:46:21.210Z,80.31
2018-10-03T04:47:31.069Z,80.41
2018-10-03T04:48:41.282Z,80.41
2018-10-03T04:49:51.212Z,80.12
2018-10-03T04:51:01.343Z,80.6
2018-10-03T04:52:11.477Z,80.79
2018-10-03T04:53:21.595Z,80.69
2018-10-03T04:54:31.753Z,80.5
2018-10-03T04:55:41.920Z,80.69
2018-10-03T04:56:52.092Z,80.69
2018-10-03T04:58:02.261Z,80.41
2018-10-03T04:59:12.440Z,80.5
2018-10-03T05:00:22.595Z,80.6
2018-10-03T05:01:32.746Z,80.5
2018-10-03T05:02:42.898Z,80.6
2018-10-03T05:03:53.016Z,80.41
2018-10-03T05:05:03.176Z,80.5
2018-10-03T05:06:13.317Z,80.31
2018-10-03T05:07:23.413Z,81.26
2018-10-03T05:08:33.547Z,80.41
2018-10-03T05:09:43.684Z,81.36
2018-10-03T05:10:53.822Z,81.17
2018-10-03T05:12:04.031Z,81.26
2018-10-03T05:13:14.285Z,80.98
2018-10-03T05:14:24.454Z,81.26
2018-10-03T05:15:34.595Z,81.07
2018-10-03T05:16:45.153Z,80.98
2018-10-03T05:17:55.274Z,80.88
2018-10-03T05:19:05.412Z,80.79
2018-10-03T05:20:15.596Z,81.07
2018-10-03T05:21:25.867Z,81.26
2018-10-03T05:22:36.025Z,81.17
2018-10-03T05:23:46.415Z,81.26
2018-10-03T05:24:56.275Z,81.26
2018-10-03T05:26:06.386Z,81.36
2018-10-03T05:27:16.536Z,81.07
2018-10-03T05:28:26.677Z,81.26
2018-10-03T05:29:36.536Z,81.93
2018-10-03T05:30:46.666Z,81.26
2018-10-03T05:31:57.043Z,81.26
2018-10-03T05:33:07.226Z,81.46
2018-10-03T05:34:17.589Z,81.65
2018-10-03T05:35:27.695Z,81.65
2018-10-03T05:36:37.821Z,81.74
2018-10-03T05:37:47.701Z,81.55
2018-10-03T05:38:58.793Z,81.46
2018-10-03T05:40:08.913Z,81.84
2018-10-03T05:41:19.040Z,81.65
2018-10-03T05:42:29.188Z,81.46
2018-10-03T05:43:39.519Z,81.65
2018-10-03T05:44:49.636Z,81.65
2018-10-03T05:45:59.778Z,81.55
2018-10-03T05:47:09.922Z,81.36
2018-10-03T05:48:20.122Z,82.21
2018-10-03T05:49:30.386Z,81.65
2018-10-03T05:50:40.539Z,82.12
2018-10-03T05:51:50.679Z,81.74
2018-10-03T05:53:00.939Z,81.74
2018-10-03T05:54:11.108Z,82.5
2018-10-03T05:55:20.970Z,81.4
2018-10-03T05:56:31.117Z,81.59
2018-10-03T05:57:40.978Z,81.68
2018-10-03T05:58:51.100Z,81.88
2018-10-03T06:00:01.295Z,81.68
2018-10-03T06:01:11.669Z,81.88
2018-10-03T06:02:21.794Z,81.4
2018-10-03T06:03:31.965Z,81.3
2018-10-03T06:04:41.842Z,81.3
2018-10-03T06:05:51.991Z,81.3
2018-10-03T06:07:02.147Z,81.49
2018-10-03T06:08:12.264Z,81.49
2018-10-03T06:09:22.673Z,81.4
2018-10-03T06:10:32.805Z,81.21
2018-10-03T06:11:42.678Z,80.73
2018-10-03T06:12:52.197Z,80.92
2018-10-03T06:14:02.127Z,80.92
2018-10-03T06:15:12.127Z,81.12
2018-10-03T06:16:22.335Z,80.83
2018-10-03T06:17:32.512Z,80.92
2018-10-03T06:18:42.391Z,80.83
2018-10-03T06:19:53.466Z,81.21
2018-10-03T06:21:03.323Z,80.64
2018-10-03T06:22:13.184Z,80.54
2018-10-03T06:23:22.992Z,80.64
2018-10-03T06:24:32.984Z,80.92
2018-10-03T06:25:43.200Z,80.64
2018-10-03T06:26:53.062Z,80.44
2018-10-03T06:28:02.592Z,80.35
2018-10-03T06:29:12.165Z,80.73
2018-10-03T06:30:21.743Z,80.73
2018-10-03T06:31:31.272Z,80.54
2018-10-03T06:32:41.383Z,80.83
2018-10-03T06:33:50.988Z,80.35
2018-10-03T06:35:00.864Z,80.35
2018-10-03T06:36:11.031Z,80.3
2018-10-03T06:37:21.173Z,80.11
2018-10-03T06:38:31.317Z,79.88
2018-10-03T06:39:41.487Z,79.97
2018-10-03T06:40:51.614Z,79.53
2018-10-03T06:42:01.556Z,79.25
2018-10-03T06:43:11.734Z,79.06
2018-10-03T06:44:21.675Z,78.96
2018-10-03T06:45:31.567Z,79.44
2018-10-03T06:46:42.100Z,79.06
2018-10-03T06:47:52.319Z,79.15
2018-10-03T06:49:02.573Z,79.15
2018-10-03T06:50:12.712Z,78.67
2018-10-03T06:51:22.633Z,78.58
2018-10-03T06:52:32.945Z,78.01
2018-10-03T06:53:42.778Z,78.2
2018-10-03T06:54:52.670Z,77.82
2018-10-03T06:56:02.854Z,77.72
2018-10-03T06:57:13.067Z,77.15
2018-10-03T06:58:23.233Z,77.19
2018-10-03T06:59:33.387Z,76.9
2018-10-03T07:00:43.527Z,75.66
2018-10-03T07:01:54.630Z,76.14
2018-10-03T07:03:05.032Z,76.04
2018-10-03T07:04:15.218Z,76.14
2018-10-03T07:05:25.377Z,76.14
2018-10-03T07:06:35.580Z,75.95
2018-10-03T07:07:45.720Z,75.18
2018-10-03T07:08:55.839Z,74.99
2018-10-03T07:10:05.784Z,75.09
2018-10-03T07:11:15.962Z,74.61
2018-10-03T07:12:26.197Z,74.74
2018-10-03T07:13:36.389Z,74.32
2018-10-03T07:14:46.588Z,74.65
2018-10-03T07:15:56.707Z,73.88
2018-10-03T07:17:06.884Z,74.37
2018-10-03T07:18:17.037Z,73.6
2018-10-03T07:19:27.182Z,73.07
2018-10-03T07:20:37.372Z,72.3
2018-10-03T07:21:47.514Z,71.06
2018-10-03T07:22:57.653Z,70.96
2018-10-03T07:24:07.821Z,71.25
2018-10-03T07:25:17.717Z,70.87
2018-10-03T07:26:27.937Z,70.58
2018-10-03T07:27:38.180Z,70.77
2018-10-03T07:28:48.363Z,70.58
2018-10-03T07:29:58.728Z,70.39
2018-10-03T07:31:09.055Z,69.27
2018-10-03T07:32:19.189Z,68.35
2018-10-03T07:33:29.458Z,67.78
2018-10-03T07:34:39.571Z,67.02
2018-10-03T07:35:49.720Z,66.92
2018-10-03T07:36:59.579Z,66.83
2018-10-03T07:38:09.718Z,67.3
2018-10-03T07:39:19.852Z,66.73
2018-10-03T07:40:30.034Z,65.68
2018-10-03T07:41:40.377Z,65.9
2018-10-03T07:42:50.498Z,66
2018-10-03T07:44:00.805Z,66.83
2018-10-03T07:45:11.057Z,66.63
2018-10-03T07:46:21.217Z,67.21
2018-10-03T07:47:31.402Z,67.78
2018-10-03T07:48:41.546Z,67.75
2018-10-03T07:49:51.716Z,67.75
2018-10-03T07:51:01.849Z,67.65
2018-10-03T07:52:11.987Z,67.84
2018-10-03T07:53:22.214Z,68.32
2018-10-03T07:54:32.491Z,68.38
2018-10-03T07:55:42.647Z,68.38
2018-10-03T07:56:52.804Z,68.96
2018-10-03T07:58:02.958Z,68.96
2018-10-03T07:59:13.237Z,68.57
2018-10-03T08:00:23.444Z,68.48
2018-10-03T08:01:33.600Z,69.05
2018-10-03T08:02:43.863Z,69.05
2018-10-03T08:03:54.071Z,68.67
2018-10-03T08:05:04.314Z,68.41
2018-10-03T08:06:14.455Z,68.48
2018-10-03T08:07:24.591Z,68.99
2018-10-03T08:08:34.828Z,68.99
2018-10-03T08:09:45.081Z,68.04
2018-10-03T08:10:54.964Z,67.78
2018-10-03T08:12:05.594Z,67.69
2018-10-03T08:13:15.872Z,67.78
2018-10-03T08:14:26.079Z,67.78
2018-10-03T08:15:36.288Z,67.88
2018-10-03T08:16:46.462Z,68.51
2018-10-03T08:17:57.629Z,68.7
2018-10-03T08:19:07.945Z,69.09
2018-10-03T08:20:18.210Z,68.9
2018-10-03T08:21:28.357Z,68.99
2018-10-03T08:22:38.532Z,69.18
2018-10-03T08:23:48.698Z,69.15
2018-10-03T08:24:58.887Z,69.09
2018-10-03T08:26:09.137Z,68.86
2018-10-03T08:27:19.534Z,69.43
2018-10-03T08:28:29.704Z,69.91
2018-10-03T08:29:39.948Z,69.91
2018-10-03T08:30:50.227Z,69.91
2018-10-03T08:32:00.426Z,70.01
2018-10-03T08:33:10.776Z,69.24
2018-10-03T08:34:20.594Z,69.53
2018-10-03T08:35:30.228Z,69.34
2018-10-03T08:36:40.374Z,68.76
2018-10-03T08:37:50.667Z,68.76
2018-10-03T08:39:00.830Z,69.15
2018-10-03T08:40:10.766Z,69.43
2018-10-03T08:41:20.991Z,69.43
2018-10-03T08:42:31.494Z,69.24
2018-10-03T08:43:41.320Z,69.43
2018-10-03T08:44:51.479Z,69.43
2018-10-03T08:46:01.653Z,69.24
2018-10-03T08:47:11.892Z,69.24
2018-10-03T08:48:22.057Z,69.15
2018-10-03T08:49:32.240Z,69.15
2018-10-03T08:50:42.488Z,69.24
2018-10-03T08:51:52.674Z,69.62
2018-10-03T08:53:03.193Z,69.24
2018-10-03T08:54:13.706Z,69.72
2018-10-03T08:55:23.887Z,69.72
2018-10-03T08:56:34.067Z,69.91
2018-10-03T08:57:44.493Z,70.29
2018-10-03T08:58:54.648Z,69.91
2018-10-03T09:00:04.853Z,70.29
2018-10-03T09:01:15.081Z,70.29
2018-10-03T09:02:25.488Z,70.48
2018-10-03T09:03:35.807Z,70.67
2018-10-03T09:04:45.451Z,69.62
2018-10-03T09:05:55.710Z,69.82
2018-10-03T09:07:06.039Z,69.82
2018-10-03T09:08:16.369Z,69.91
2018-10-03T09:09:26.593Z,69.82
2018-10-03T09:10:36.811Z,70.01
2018-10-03T09:11:47.211Z,69.72
2018-10-03T09:12:57.172Z,69.91
2018-10-03T09:14:07.037Z,69.91
2018-10-03T09:15:17.062Z,70.01
2018-10-03T09:16:27.418Z,70.39
2018-10-03T09:17:37.572Z,70.2
2018-10-03T09:18:48.180Z,70.39
2018-10-03T09:19:59.340Z,70.39
2018-10-03T09:21:09.607Z,70.01
2018-10-03T09:22:19.955Z,70.1
2018-10-03T09:23:30.152Z,69.91
2018-10-03T09:24:40.038Z,69.82
2018-10-03T09:25:50.435Z,69.82
2018-10-03T09:27:00.645Z,70.01
2018-10-03T09:28:11.227Z,69.91
2018-10-03T09:29:21.709Z,69.24
2018-10-03T09:30:31.969Z,69.34
2018-10-03T09:31:42.115Z,69.53
2018-10-03T09:32:52.266Z,69.53
2018-10-03T09:34:02.466Z,69.15
2018-10-03T09:35:12.637Z,69.34
2018-10-03T09:36:22.838Z,69.24
2018-10-03T09:37:32.783Z,68.9
2018-10-03T09:38:42.716Z,68.61
2018-10-03T09:39:53.114Z,67.84
2018-10-03T09:41:03.279Z,67.97
2018-10-03T09:42:13.488Z,67.27
2018-10-03T09:43:24.863Z,66.73
2018-10-03T09:44:34.940Z,67.02
2018-10-03T09:45:45.691Z,66.73
2018-10-03T09:46:55.925Z,66.83
2018-10-03T09:48:06.122Z,65.97
2018-10-03T09:49:16.277Z,65.58
2018-10-03T09:50:26.440Z,65.77
2018-10-03T09:51:36.622Z,65.77
2018-10-03T09:52:46.818Z,63.89
2018-10-03T09:53:57.002Z,63.99
2018-10-03T09:55:06.931Z,64.4
2018-10-03T09:56:17.000Z,64.31
2018-10-03T09:57:27.143Z,63.35
2018-10-03T09:58:37.149Z,63.93
2018-10-03T09:59:47.166Z,64.18
2018-10-03T10:00:57.566Z,64.47
2018-10-03T10:02:07.595Z,64.66
2018-10-03T10:03:17.778Z,64.75
2018-10-03T10:04:27.937Z,64.56
2018-10-03T10:05:38.225Z,64.95
2018-10-03T10:06:48.413Z,64.66
2018-10-03T10:07:58.619Z,64.4
2018-10-03T10:09:08.853Z,63.39
2018-10-03T10:10:19.223Z,63.19
2018-10-03T10:11:29.893Z,62.62
2018-10-03T10:12:41.259Z,62.87
2018-10-03T10:13:51.576Z,62.59
2018-10-03T10:15:01.727Z,63.16
2018-10-03T10:16:11.930Z,63.64
2018-10-03T10:17:22.320Z,63.23
2018-10-03T10:18:32.576Z,63.6
2018-10-03T10:19:42.813Z,63.8
2018-10-03T10:20:53.194Z,63.13
2018-10-03T10:22:03.673Z,63.45
2018-10-03T10:23:13.590Z,63.35
2018-10-03T10:24:23.757Z,63.26
2018-10-03T10:25:33.672Z,63.99
2018-10-03T10:26:44.047Z,64.66
2018-10-03T10:27:54.324Z,65.14
2018-10-03T10:29:04.609Z,65.9
2018-10-03T10:30:14.986Z,65.77
2018-10-03T10:31:25.175Z,66.63
2018-10-03T10:32:35.678Z,66.63
2018-10-03T10:33:46.310Z,66
2018-10-03T10:34:56.285Z,64.69
2018-10-03T10:36:06.491Z,63.67
2018-10-03T10:37:16.700Z,61.72
2018-10-03T10:38:26.964Z,60.12
2018-10-03T10:39:37.242Z,59.09
2018-10-03T10:40:48.000Z,56.15
2018-10-03T10:41:58.495Z,55.79
2018-10-03T10:43:08.675Z,54.09
2018-10-03T10:44:19.009Z,54.12
2018-10-03T10:45:29.594Z,53.25
2018-10-03T10:46:39.835Z,53.25
2018-10-03T10:47:50.600Z,54
2018-10-03T10:49:00.514Z,55.15
2018-10-03T10:50:10.836Z,54.55
2018-10-03T10:51:21.460Z,55.47
2018-10-03T10:52:31.888Z,55.77
2018-10-03T10:53:41.840Z,57.08
2018-10-03T10:54:52.051Z,56.76
2018-10-03T10:56:02.278Z,57.15
2018-10-03T10:57:12.469Z,56.48
2018-10-03T10:58:22.634Z,56.51
2018-10-03T10:59:32.882Z,56.22
2018-10-03T11:00:43.590Z,55.45
2018-10-03T11:01:54.017Z,56.02
2018-10-03T11:03:04.285Z,56.12
2018-10-03T11:04:13.969Z,56.38
2018-10-03T11:05:24.336Z,56.86
2018-10-03T11:06:34.673Z,56.86
2018-10-03T11:07:45.268Z,56.19
2018-10-03T11:08:55.117Z,55.83
2018-10-03T11:10:05.357Z,54.9
2018-10-03T11:11:15.820Z,53.66
2018-10-03T11:12:26.121Z,53.78
2018-10-03T11:13:36.063Z,54.16
2018-10-03T11:14:46.523Z,54.06
2018-10-03T11:15:56.789Z,54.16
2018-10-03T11:17:07.186Z,54.06
2018-10-03T11:18:17.387Z,54.83
2018-10-03T11:19:27.594Z,57.01
2018-10-03T11:20:38.060Z,59.19
2018-10-03T11:21:48.448Z,60.31
2018-10-03T11:22:58.675Z,61.53
2018-10-03T11:24:09.060Z,62.68
2018-10-03T11:25:19.206Z,63.7
2018-10-03T11:26:29.402Z,64.18
2018-10-03T11:27:39.550Z,64.72
2018-10-03T11:28:50.147Z,64.25
2018-10-03T11:30:00.352Z,63.32
2018-10-03T11:31:10.320Z,62.68
2018-10-03T11:32:20.674Z,61.66
2018-10-03T11:33:30.892Z,61.18
2018-10-03T11:34:41.039Z,59.48
2018-10-03T11:35:51.232Z,58.36
2018-10-03T11:37:01.431Z,57.33
2018-10-03T11:38:11.678Z,56.49
2018-10-03T11:39:22.215Z,56.52
2018-10-03T11:40:32.428Z,55.08
2018-10-03T11:41:42.596Z,52.99
2018-10-03T11:42:52.779Z,52.32
2018-10-03T11:44:02.892Z,52.54
2018-10-03T11:45:13.021Z,52.63
2018-10-03T11:46:23.040Z,52.34
2018-10-03T11:47:33.485Z,51.02
2018-10-03T11:48:43.932Z,50.93
2018-10-03T11:49:54.254Z,49.79
2018-10-03T11:51:04.409Z,49.22
2018-10-03T11:52:14.585Z,47.67
2018-10-03T11:53:24.778Z,47.41
2018-10-03T11:54:35.070Z,46.33
2018-10-03T11:55:45.182Z,46.91
2018-10-03T11:56:55.417Z,48.03
2018-10-03T11:58:05.874Z,48.13
2018-10-03T11:59:16.152Z,48.49
2018-10-03T12:00:26.516Z,49.07
2018-10-03T12:01:36.705Z,49.07
2018-10-03T12:02:46.818Z,49.63
2018-10-03T12:03:58.685Z,50.27
2018-10-03T12:05:08.493Z,50.73
2018-10-03T12:06:18.672Z,52.17
2018-10-03T12:07:29.324Z,52.72
2018-10-03T12:08:39.808Z,53.39
2018-10-03T12:09:49.987Z,53.66
2018-10-03T12:11:00.271Z,54.33
2018-10-03T12:12:10.476Z,54.9
2018-10-03T12:13:20.687Z,55.38
2018-10-03T12:14:30.955Z,55.67
2018-10-03T12:15:41.095Z,55.57
2018-10-03T12:16:51.331Z,55.57
2018-10-03T12:18:01.603Z,55.38
2018-10-03T12:19:12.249Z,55.38
2018-10-03T12:20:22.461Z,54.9
2018-10-03T12:21:33.693Z,54.49
2018-10-03T12:22:43.852Z,54.39
2018-10-03T12:23:53.801Z,54.58
2018-10-03T12:25:04.025Z,54.21
2018-10-03T12:26:14.474Z,54.78
2018-10-03T12:27:24.767Z,55.26
2018-10-03T12:28:35.047Z,55.52
2018-10-03T12:29:45.380Z,55.62
2018-10-03T12:30:55.552Z,55.74
2018-10-03T12:32:05.552Z,55.35
2018-10-03T12:33:15.862Z,55.45
2018-10-03T12:34:26.306Z,55.26
2018-10-03T12:35:36.523Z,55.26
2018-10-03T12:36:46.719Z,55.19
2018-10-03T12:37:56.950Z,54.71
2018-10-03T12:39:06.975Z,54.45
2018-10-03T12:40:16.880Z,54.45
2018-10-03T12:41:27.354Z,54.25
2018-10-03T12:42:37.757Z,53.42
2018-10-03T12:43:47.760Z,53.23
2018-10-03T12:44:58.318Z,53.52
2018-10-03T12:46:08.710Z,53.61
2018-10-03T12:47:18.940Z,52.87
2018-10-03T12:48:29.368Z,52.77
2018-10-03T12:49:39.580Z,52.68
2018-10-03T12:50:50.026Z,52.77
2018-10-03T12:52:00.439Z,52.87
2018-10-03T12:53:10.271Z,52.87
2018-10-03T12:54:20.470Z,53.03
2018-10-03T12:55:30.675Z,53.23
2018-10-03T12:56:40.952Z,53.32
2018-10-03T12:57:51.613Z,54.06
2018-10-03T12:59:01.797Z,53.87
2018-10-03T13:00:11.990Z,54.52
2018-10-03T13:01:22.392Z,59.03
2018-10-03T13:02:33.026Z,60.05
2018-10-03T13:03:43.213Z,60.41
2018-10-03T13:04:53.469Z,61.15
2018-10-03T13:06:03.697Z,61.79
2018-10-03T13:07:14.019Z,62.74
2018-10-03T13:08:24.187Z,63.96
2018-10-03T13:09:34.353Z,64.69
2018-10-03T13:10:44.564Z,65.26
2018-10-03T13:11:54.763Z,67.08
2018-10-03T13:13:04.355Z,66.67
2018-10-03T13:14:14.900Z,67.14
2018-10-03T13:15:24.791Z,68.01
2018-10-03T13:16:35.091Z,68.49
2018-10-03T13:17:45.479Z,68.96
2018-10-03T13:18:56.685Z,68.58
2018-10-03T13:20:06.731Z,68.2
2018-10-03T13:21:16.965Z,67.82
2018-10-03T13:22:27.136Z,67.91
2018-10-03T13:23:37.455Z,68.39
2018-10-03T13:24:47.649Z,67.53
2018-10-03T13:25:57.910Z,68.01
2018-10-03T13:27:08.095Z,67.14
2018-10-03T13:28:18.377Z,67.43
2018-10-03T13:29:28.587Z,65.9
2018-10-03T13:30:38.827Z,66.67
2018-10-03T13:31:49.525Z,67.08
2018-10-03T13:32:59.718Z,66.28
2018-10-03T13:34:09.635Z,66.61
2018-10-03T13:35:19.827Z,66.51
2018-10-03T13:36:30.066Z,66.99
2018-10-03T13:37:40.265Z,66.03
2018-10-03T13:38:50.675Z,66.03
2018-10-03T13:40:00.896Z,66.41
2018-10-03T13:41:11.101Z,65.74
2018-10-03T13:42:21.649Z,66.03
2018-10-03T13:43:31.802Z,66.32
2018-10-03T13:44:42.026Z,66.32
2018-10-03T13:45:52.255Z,66.13
2018-10-03T13:47:02.465Z,66.32
2018-10-03T13:48:12.653Z,66.22
2018-10-03T13:49:22.916Z,66.41
2018-10-03T13:50:33.103Z,67.08
2018-10-03T13:51:43.298Z,67.37
2018-10-03T13:52:53.467Z,66.8
2018-10-03T13:54:03.323Z,66.89
2018-10-03T13:55:13.150Z,66.51
2018-10-03T13:56:23.638Z,67.08
2018-10-03T13:57:33.855Z,66.8
2018-10-03T13:58:44.536Z,67.27
2018-10-03T13:59:54.739Z,67.85
2018-10-03T14:01:04.683Z,67.18
2018-10-03T14:02:14.685Z,68.04
2018-10-03T14:03:24.953Z,69.09
2018-10-03T14:04:35.233Z,70.05
2018-10-03T14:05:45.208Z,70.78
2018-10-03T14:06:55.672Z,71.16
2018-10-03T14:08:05.883Z,70.68
2018-10-03T14:09:16.079Z,71.03
2018-10-03T14:10:26.012Z,71.22
2018-10-03T14:11:35.908Z,71.89
2018-10-03T14:12:46.249Z,72.37
2018-10-03T14:13:56.442Z,72.47
2018-10-03T14:15:06.371Z,72.56
2018-10-03T14:16:16.552Z,73.04
2018-10-03T14:17:26.746Z,72.37
2018-10-03T14:18:37.242Z,72.22
2018-10-03T14:19:47.961Z,72.5
2018-10-03T14:20:57.929Z,72.02
2018-10-03T14:22:08.185Z,71.26
2018-10-03T14:23:17.985Z,71.26
2018-10-03T14:24:29.262Z,70.87
2018-10-03T14:25:39.719Z,70.97
2018-10-03T14:26:49.896Z,71.2
2018-10-03T14:28:00.087Z,70.91
2018-10-03T14:29:10.151Z,71.3
2018-10-03T14:30:20.438Z,71.01
2018-10-03T14:31:30.705Z,70.72
2018-10-03T14:32:41.861Z,70.81
2018-10-03T14:35:03.924Z,71.01
2018-10-03T14:36:14.146Z,70.43
2018-10-03T14:37:25.314Z,70.5
2018-10-03T14:38:35.542Z,70.78
2018-10-03T14:39:46.120Z,71.07
2018-10-03T14:40:56.939Z,70.97
2018-10-03T14:42:06.853Z,71.07
2018-10-03T14:43:17.274Z,70.78
2018-10-03T14:44:27.612Z,71.16
2018-10-03T14:45:37.833Z,71.07
2018-10-03T14:46:48.203Z,71.26
2018-10-03T14:47:58.440Z,71.07
2018-10-03T14:49:08.657Z,71.26
2018-10-03T14:50:18.585Z,71.45
2018-10-03T14:51:28.874Z,71.26
2018-10-03T14:52:39.510Z,71.93
2018-10-03T14:53:49.984Z,71.89
2018-10-03T14:54:59.791Z,72.69
2018-10-03T14:56:09.997Z,71.8
2018-10-03T14:57:20.639Z,72.66
2018-10-03T14:58:30.966Z,72.56
2018-10-03T14:59:41.810Z,71.89
2018-10-03T15:00:52.040Z,71.22
2018-10-03T15:02:02.322Z,71.61
2018-10-03T15:03:12.506Z,71.51
2018-10-03T15:04:22.708Z,71.51
2018-10-03T15:05:32.984Z,71.51
2018-10-03T15:06:42.913Z,71.22
2018-10-03T15:07:53.100Z,71.7
2018-10-03T15:09:03.268Z,71.51